Time;durP1;ratioP1;P1;durP2;ratioP2;P2;SDS_P1;SDS_P2;PMS_P1;PMS_P2;Temp;Humidity;BMP_temperature;BMP_pressure;BME280_temperature;BME280_humidity;BME280_pressure;Samples;Min_cycle;Max_cycle;Signal;HPM_P1;HPM_P2
2021/07/13 10:48:10;;;;;;;43.13;28.60;;;;;;;;;;5021653;28;20419;-80
2021/07/13 10:51:17;;;;;;;41.50;29.17;;;;;;;;;;4996532;28;20100;-80
2021/07/13 10:54:06;;;;;;;48.10;29.90;;;;;;;;;;4987097;28;20042;-80
2021/07/13 10:57:10;;;;;;;43.20;30.52;;;;;;;;;;5008017;28;20041;-79
2021/07/13 10:59:57;;;;;;;45.40;31.58;;;;;;;;;;5010862;28;20279;-81
2021/07/13 11:02:42;;;;;;;48.28;32.22;;;;;;;;;;4988471;28;20042;-83
2021/07/13 11:05:40;;;;;;;47.88;34.25;;;;;;;;;;5000709;28;20045;-81
2021/07/13 11:11:28;;;;;;;60.30;42.60;;;;;;;;;;4996044;28;20658;-80
2021/07/13 11:14:15;;;;;;;72.45;53.83;;;;;;;;;;5016312;28;20042;-78
2021/07/13 11:17:00;;;;;;;92.13;77.07;;;;;;;;;;5009344;28;20037;-81
2021/07/13 11:19:45;;;;;;;104.15;77.93;;;;;;;;;;5023550;28;20407;-83
2021/07/13 11:22:31;;;;;;;106.45;85.38;;;;;;;;;;5029228;28;20045;-80
2021/07/13 11:25:24;;;;;;;111.43;89.40;;;;;;;;;;5014499;28;20032;-80
2021/07/13 11:28:10;;;;;;;113.55;86.43;;;;;;;;;;5018348;28;20415;-80
2021/07/13 11:30:56;;;;;;;108.13;89.25;;;;;;;;;;5014347;28;20052;-80
2021/07/13 11:33:41;;;;;;;107.03;85.90;;;;;;;;;;5019784;28;20056;-80
2021/07/13 11:36:30;;;;;;;119.53;92.28;;;;;;;;;;5027796;28;20044;-79
2021/07/13 11:39:32;;;;;;;113.60;95.28;;;;;;;;;;5032759;28;20035;-81
2021/07/13 11:42:17;;;;;;;118.22;96.32;;;;;;;;;;5039079;28;20049;-80
2021/07/13 11:45:03;;;;;;;114.82;91.25;;;;;;;;;;5038555;28;20044;-80
2021/07/13 11:47:48;;;;;;;106.70;87.65;;;;;;;;;;5041225;28;20522;-79
2021/07/13 11:50:36;;;;;;;108.90;88.22;;;;;;;;;;5034847;28;20040;-79
2021/07/13 11:53:21;;;;;;;107.57;90.07;;;;;;;;;;5034258;28;20045;-81
2021/07/13 11:56:07;;;;;;;113.28;89.50;;;;;;;;;;5024355;28;20064;-83
2021/07/13 11:58:51;;;;;;;114.05;90.95;;;;;;;;;;5003859;28;20076;-79
2021/07/13 12:01:40;;;;;;;115.35;99.30;;;;;;;;;;5024157;28;20404;-82
2021/07/13 12:04:25;;;;;;;113.38;93.88;;;;;;;;;;5023476;28;20052;-80
2021/07/13 12:07:14;;;;;;;111.82;88.53;;;;;;;;;;5024168;28;20045;-82
2021/07/13 12:10:06;;;;;;;109.60;89.55;;;;;;;;;;5024896;28;20515;-79
2021/07/13 12:12:51;;;;;;;120.85;91.15;;;;;;;;;;5023350;28;20054;-79
2021/07/13 12:15:36;;;;;;;116.05;96.72;;;;;;;;;;5019592;28;20411;-80
2021/07/13 12:18:20;;;;;;;112.90;90.65;;;;;;;;;;5022317;28;20044;-79
2021/07/13 12:21:06;;;;;;;111.72;86.35;;;;;;;;;;5024714;28;20510;-79
2021/07/13 12:23:52;;;;;;;115.10;92.53;;;;;;;;;;5021180;28;20411;-81
2021/07/13 12:26:39;;;;;;;103.63;79.82;;;;;;;;;;5021347;28;20103;-89
2021/07/13 12:29:23;;;;;;;;;;;;;;;;;;5022235;28;20041;-88
2021/07/13 12:32:19;;;;;;;96.78;71.35;;;;;;;;;;5017641;28;19920;-88
2021/07/13 12:35:05;;;;;;;88.80;68.10;;;;;;;;;;5016363;28;20043;-89
2021/07/13 12:37:50;;;;;;;96.75;71.13;;;;;;;;;;5024588;28;20042;-89
2021/07/13 12:40:35;;;;;;;92.85;68.65;;;;;;;;;;5024210;28;20052;-89
2021/07/13 12:43:22;;;;;;;81.68;62.92;;;;;;;;;;5025717;28;20042;-88
2021/07/13 12:46:26;;;;;;;82.80;59.40;;;;;;;;;;5030511;28;20045;-88
2021/07/13 12:49:11;;;;;;;90.05;60.42;;;;;;;;;;5024794;28;20512;-88
2021/07/13 12:52:07;;;;;;;76.72;56.08;;;;;;;;;;5023050;28;20053;-88
2021/07/13 12:54:58;;;;;;;66.10;46.40;;;;;;;;;;5025001;28;20052;-88
2021/07/13 12:57:47;;;;;;;63.53;43.25;;;;;;;;;;5025000;28;20049;-88
2021/07/13 13:00:32;;;;;;;56.85;42.17;;;;;;;;;;5025081;28;20050;-88
2021/07/13 13:03:18;;;;;;;61.65;40.17;;;;;;;;;;5024864;28;20045;-88
2021/07/13 13:06:06;;;;;;;52.95;35.63;;;;;;;;;;5024597;28;20171;-88
2021/07/13 13:08:51;;;;;;;68.95;45.20;;;;;;;;;;5024380;28;20054;-88
2021/07/13 13:11:37;;;;;;;57.25;38.40;;;;;;;;;;5024461;28;20322;-88
2021/07/13 13:14:30;;;;;;;56.85;36.42;;;;;;;;;;5025631;28;20056;-88
2021/07/13 13:17:16;;;;;;;45.78;28.73;;;;;;;;;;5027689;28;20041;-88
2021/07/13 13:20:01;;;;;;;49.22;33.45;;;;;;;;;;5026162;28;20038;-88
2021/07/13 13:22:46;;;;;;;46.58;30.73;;;;;;;;;;5025041;28;20317;-88
2021/07/13 13:25:31;;;;;;;53.20;30.08;;;;;;;;;;5026274;28;20061;-89
2021/07/13 13:28:17;;;;;;;41.13;25.08;;;;;;;;;;5026963;28;20029;-88
2021/07/13 13:31:02;;;;;;;37.65;24.13;;;;;;;;;;5026013;28;20049;-87
2021/07/13 13:33:52;;;;;;;43.42;27.30;;;;;;;;;;5025349;28;20422;-85
2021/07/13 13:36:43;;;;;;;35.28;24.27;;;;;;;;;;5024236;28;20420;-88
2021/07/13 13:39:28;;;;;;;43.50;23.20;;;;;;;;;;5023801;28;20044;-88
2021/07/13 13:42:14;;;;;;;36.67;22.27;;;;;;;;;;5024285;28;20336;-85
2021/07/13 13:44:59;;;;;;;31.77;19.67;;;;;;;;;;5024007;28;20048;-87
2021/07/13 13:47:44;;;;;;;31.00;20.55;;;;;;;;;;5021795;28;20068;-87
2021/07/13 13:50:29;;;;;;;30.88;19.42;;;;;;;;;;5024455;28;20052;-86
2021/07/13 13:53:14;;;;;;;33.17;19.63;;;;;;;;;;5023528;28;20045;-86
2021/07/13 13:55:59;;;;;;;34.25;18.30;;;;;;;;;;5022090;28;20535;-87
2021/07/13 13:58:44;;;;;;;29.58;18.45;;;;;;;;;;5023840;28;20056;-86
2021/07/13 14:01:29;;;;;;;29.20;17.50;;;;;;;;;;5023862;28;20503;-87
2021/07/13 14:04:14;;;;;;;37.65;18.00;;;;;;;;;;5022182;28;20045;-86
2021/07/13 14:06:59;;;;;;;23.52;15.02;;;;;;;;;;5022971;28;20117;-86
2021/07/13 14:09:44;;;;;;;24.83;15.65;;;;;;;;;;5017428;28;20049;-86
2021/07/13 14:12:29;;;;;;;31.90;15.88;;;;;;;;;;4995167;28;20041;-85
2021/07/13 14:15:16;;;;;;;25.98;16.40;;;;;;;;;;4988015;28;20060;-85
2021/07/13 14:18:00;;;;;;;28.58;18.02;;;;;;;;;;4995369;28;20060;-85
2021/07/13 14:20:46;;;;;;;27.58;17.63;;;;;;;;;;5001213;28;20412;-86
2021/07/13 14:23:31;;;;;;;30.42;16.85;;;;;;;;;;4999668;28;20041;-86
2021/07/13 14:26:16;;;;;;;28.52;16.55;;;;;;;;;;5000433;28;20048;-85
2021/07/13 14:29:01;;;;;;;28.20;16.17;;;;;;;;;;5000329;28;20061;-85
2021/07/13 14:31:49;;;;;;;23.50;15.73;;;;;;;;;;5006344;28;20049;-84
2021/07/13 14:34:34;;;;;;;24.00;15.88;;;;;;;;;;5000707;28;20045;-84
2021/07/13 14:37:19;;;;;;;29.20;16.65;;;;;;;;;;5013482;28;20053;-84
2021/07/13 14:40:04;;;;;;;27.15;17.42;;;;;;;;;;5014939;28;20040;-83
2021/07/13 14:42:49;;;;;;;25.65;17.25;;;;;;;;;;5003073;28;20049;-84
2021/07/13 14:45:34;;;;;;;32.05;20.13;;;;;;;;;;5001543;28;20531;-84
2021/07/13 14:48:20;;;;;;;26.40;17.88;;;;;;;;;;5002013;28;20516;-83
2021/07/13 14:51:05;;;;;;;28.60;18.98;;;;;;;;;;4997618;28;20048;-82
2021/07/13 14:53:50;;;;;;;32.20;17.98;;;;;;;;;;5010052;28;20044;-84
2021/07/13 14:56:35;;;;;;;27.92;17.70;;;;;;;;;;5003288;28;21111;-84
2021/07/13 14:59:20;;;;;;;24.58;16.90;;;;;;;;;;5001850;28;20301;-83
2021/07/13 15:02:04;;;;;;;26.98;18.60;;;;;;;;;;5000989;28;20416;-85
2021/07/13 15:04:50;;;;;;;32.35;18.42;;;;;;;;;;5003175;28;20342;-83
2021/07/13 15:07:35;;;;;;;29.65;17.88;;;;;;;;;;5002875;28;20040;-83
2021/07/13 15:10:20;;;;;;;26.30;17.10;;;;;;;;;;5004992;28;20848;-86
2021/07/13 15:13:06;;;;;;;25.00;16.05;;;;;;;;;;5012516;28;20060;-84
2021/07/13 15:15:51;;;;;;;22.67;15.02;;;;;;;;;;5022965;28;20036;-84
2021/07/13 15:18:36;;;;;;;23.98;15.95;;;;;;;;;;5020062;28;20412;-83
2021/07/13 15:21:21;;;;;;;25.60;13.80;;;;;;;;;;5004101;28;20056;-83
2021/07/13 15:24:10;;;;;;;25.55;14.43;;;;;;;;;;5017342;28;20408;-82
2021/07/13 15:26:55;;;;;;;23.20;15.50;;;;;;;;;;5003957;28;20496;-84
2021/07/13 15:29:41;;;;;;;23.52;12.90;;;;;;;;;;5031505;28;20040;-83
2021/07/13 15:32:27;;;;;;;19.58;12.23;;;;;;;;;;5019886;28;20040;-84
2021/07/13 15:35:12;;;;;;;23.13;13.10;;;;;;;;;;5000254;28;20555;-83
2021/07/13 15:37:59;;;;;;;24.65;12.35;;;;;;;;;;5018302;28;20056;-84
2021/07/13 15:40:45;;;;;;;21.20;11.73;;;;;;;;;;5003205;28;20522;-84
2021/07/13 15:43:30;;;;;;;24.83;12.52;;;;;;;;;;5022386;28;20079;-83
2021/07/13 15:46:17;;;;;;;21.27;12.77;;;;;;;;;;5014213;28;20522;-84
2021/07/13 15:49:02;;;;;;;;;;;;;;;;;;5032602;28;20599;-86
2021/07/13 15:51:48;;;;;;;;;;;;;;;;;;5022865;28;20559;-81
2021/07/13 15:54:34;;;;;;;24.77;12.02;;;;;;;;;;4997959;28;19920;-85
2021/07/13 15:57:19;;;;;;;24.17;11.82;;;;;;;;;;5015572;28;20048;-87
2021/07/13 16:00:07;;;;;;;21.80;12.40;;;;;;;;;;5017689;28;20427;-85
2021/07/13 16:02:52;;;;;;;20.98;12.27;;;;;;;;;;5003406;28;20044;-88
2021/07/13 16:05:40;;;;;;;23.50;13.02;;;;;;;;;;5015268;28;20056;-86
2021/07/13 16:08:27;;;;;;;21.05;12.45;;;;;;;;;;5000984;28;20036;-88
2021/07/13 16:11:12;;;;;;;21.85;12.27;;;;;;;;;;5010344;28;20250;-86
2021/07/13 16:13:58;;;;;;;20.40;12.50;;;;;;;;;;5029361;28;20044;-84
2021/07/13 16:16:43;;;;;;;21.00;11.52;;;;;;;;;;5023842;28;20511;-82
2021/07/13 16:19:28;;;;;;;22.17;12.77;;;;;;;;;;5021586;28;20454;-81
2021/07/13 16:22:13;;;;;;;21.45;13.07;;;;;;;;;;5024377;28;20412;-82
2021/07/13 16:24:58;;;;;;;19.58;11.88;;;;;;;;;;5020260;28;20316;-81
2021/07/13 16:27:44;;;;;;;23.77;12.45;;;;;;;;;;5020020;28;20421;-81
2021/07/13 16:30:29;;;;;;;20.48;11.70;;;;;;;;;;5003105;28;20039;-83
2021/07/13 16:33:15;;;;;;;28.67;12.70;;;;;;;;;;5018526;28;20432;-83
2021/07/13 16:36:02;;;;;;;20.98;12.15;;;;;;;;;;5006507;28;21101;-82
2021/07/13 16:38:47;;;;;;;18.67;11.95;;;;;;;;;;5015043;28;20129;-84
2021/07/13 16:41:33;;;;;;;18.58;11.38;;;;;;;;;;5022878;28;20049;-82
2021/07/13 16:44:17;;;;;;;22.77;12.07;;;;;;;;;;5003313;28;20041;-81
2021/07/13 16:47:04;;;;;;;25.95;13.15;;;;;;;;;;5013405;28;20499;-80
2021/07/13 16:49:49;;;;;;;21.48;12.57;;;;;;;;;;5023579;28;20053;-84
2021/07/13 16:52:34;;;;;;;28.33;13.82;;;;;;;;;;5006286;28;20064;-83
2021/07/13 16:55:20;;;;;;;24.98;12.77;;;;;;;;;;5003786;28;20471;-81
2021/07/13 16:58:08;;;;;;;24.00;13.40;;;;;;;;;;5017405;28;20052;-85
2021/07/13 17:00:53;;;;;;;22.23;13.18;;;;;;;;;;4984566;28;20041;-87
2021/07/13 17:03:38;;;;;;;22.20;12.73;;;;;;;;;;4989025;28;20033;-89
2021/07/13 17:06:23;;;;;;;22.55;13.93;;;;;;;;;;5023313;28;20068;-83
2021/07/13 17:09:08;;;;;;;26.17;14.13;;;;;;;;;;5019826;28;20048;-82
2021/07/13 17:11:53;;;;;;;24.23;14.45;;;;;;;;;;5020802;28;20408;-81
2021/07/13 17:14:38;;;;;;;27.05;13.15;;;;;;;;;;5019950;28;20052;-81
2021/07/13 17:17:23;;;;;;;25.35;13.02;;;;;;;;;;5006823;28;20048;-80
2021/07/13 17:20:12;;;;;;;19.10;12.23;;;;;;;;;;5007710;28;20045;-79
2021/07/13 17:22:58;;;;;;;21.42;12.80;;;;;;;;;;5017075;28;20064;-82
2021/07/13 17:25:43;;;;;;;24.80;13.35;;;;;;;;;;5012703;28;20044;-88
2021/07/13 17:28:28;;;;;;;22.63;14.13;;;;;;;;;;5012983;28;20411;-81
2021/07/13 17:31:13;;;;;;;24.85;15.13;;;;;;;;;;5022344;28;20420;-90
2021/07/13 17:33:58;;;;;;;27.33;15.00;;;;;;;;;;5020659;28;20044;-81
2021/07/13 17:36:43;;;;;;;26.17;14.00;;;;;;;;;;5011027;28;20577;-81
2021/07/13 17:39:28;;;;;;;22.52;13.60;;;;;;;;;;5021213;28;20052;-88
2021/07/13 17:42:13;;;;;;;23.63;14.63;;;;;;;;;;5022909;28;20419;-82
2021/07/13 17:44:58;;;;;;;25.85;12.90;;;;;;;;;;5021018;28;20048;-81
2021/07/13 17:47:43;;;;;;;22.48;14.40;;;;;;;;;;5022971;28;20052;-82
2021/07/13 17:50:28;;;;;;;18.48;15.32;;;;;;;;;;5021605;28;20416;-81
2021/07/13 17:53:13;;;;;;;25.77;14.50;;;;;;;;;;5022938;28;20041;-80
2021/07/13 17:55:59;;;;;;;22.13;15.45;;;;;;;;;;5007386;28;20127;-81
2021/07/13 17:58:45;;;;;;;23.30;15.52;;;;;;;;;;5001942;28;20057;-84
2021/07/13 18:01:30;;;;;;;19.98;14.75;;;;;;;;;;5019369;28;20036;-84
2021/07/13 18:04:16;;;;;;;23.40;16.05;;;;;;;;;;5020793;28;20130;-82
2021/07/13 18:07:01;;;;;;;21.73;15.75;;;;;;;;;;4993628;28;20520;-86
2021/07/13 18:09:47;;;;;;;28.25;16.52;;;;;;;;;;5008987;28;20044;-87
2021/07/13 18:12:32;;;;;;;23.85;15.05;;;;;;;;;;5007264;28;20044;-91
2021/07/13 18:15:17;;;;;;;24.45;15.98;;;;;;;;;;5004971;28;20048;-90
2021/07/13 18:18:02;;;;;;;26.80;15.65;;;;;;;;;;4993791;28;20052;-86
2021/07/13 18:20:47;;;;;;;20.50;14.63;;;;;;;;;;4996713;28;20040;-88
2021/07/13 18:23:33;;;;;;;26.58;15.73;;;;;;;;;;5004237;28;20044;-88
2021/07/13 18:26:18;;;;;;;25.55;15.30;;;;;;;;;;5003914;28;20044;-89
2021/07/13 18:29:03;;;;;;;27.00;14.90;;;;;;;;;;5009447;28;20048;-90
2021/07/13 18:31:48;;;;;;;24.08;15.02;;;;;;;;;;5015528;28;20088;-89
2021/07/13 18:34:33;;;;;;;24.25;15.25;;;;;;;;;;5003077;28;20052;-86
2021/07/13 18:37:18;;;;;;;30.30;15.60;;;;;;;;;;5014460;28;20052;-88
2021/07/13 18:40:03;;;;;;;22.67;16.08;;;;;;;;;;4988166;28;20064;-87
2021/07/13 18:42:48;;;;;;;25.85;16.63;;;;;;;;;;5005817;28;20040;-89
2021/07/13 18:45:34;;;;;;;26.50;15.40;;;;;;;;;;4991277;28;20048;-91
2021/07/13 18:48:19;;;;;;;27.92;16.38;;;;;;;;;;5013467;28;20047;-88
2021/07/13 18:51:07;;;;;;;31.75;16.90;;;;;;;;;;5004715;28;20048;-85
2021/07/13 18:53:51;;;;;;;28.85;16.83;;;;;;;;;;5005630;28;20040;-84
2021/07/13 18:56:36;;;;;;;25.88;16.08;;;;;;;;;;5015096;28;20049;-87
2021/07/13 18:59:21;;;;;;;29.35;17.25;;;;;;;;;;5016415;28;20056;-85
2021/07/13 19:02:06;;;;;;;23.95;16.08;;;;;;;;;;5012974;28;20049;-83
2021/07/13 19:04:51;;;;;;;27.58;16.48;;;;;;;;;;5013178;28;20040;-84
2021/07/13 19:07:36;;;;;;;22.13;16.50;;;;;;;;;;5013131;28;20045;-82
2021/07/13 19:10:20;;;;;;;25.60;16.02;;;;;;;;;;5020573;28;20036;-84
2021/07/13 19:13:06;;;;;;;26.70;16.65;;;;;;;;;;5003434;28;20041;-84
2021/07/13 19:15:51;;;;;;;29.83;15.43;;;;;;;;;;5014633;28;20044;-83
2021/07/13 19:18:36;;;;;;;24.27;15.90;;;;;;;;;;5002460;28;20053;-86
2021/07/13 19:21:21;;;;;;;23.73;16.27;;;;;;;;;;4999154;28;20062;-84
2021/07/13 19:24:07;;;;;;;22.58;16.73;;;;;;;;;;4999186;28;20053;-82
2021/07/13 19:26:52;;;;;;;24.35;17.77;;;;;;;;;;5003256;28;20520;-82
2021/07/13 19:29:37;;;;;;;27.83;16.63;;;;;;;;;;5003002;28;20044;-83
2021/07/13 19:32:42;;;;;;;28.65;17.42;;;;;;;;;;4995712;28;20045;-83
2021/07/13 19:37:29;;;;;;;29.85;17.75;;;;;;;;;;4999309;28;20424;-82
2021/07/13 19:38:32;;;;;;;26.85;17.60;;;;;;;;;;5002321;28;20269;-83
2021/07/13 19:41:17;;;;;;;30.50;17.65;;;;;;;;;;5003357;28;20041;-82
2021/07/13 19:44:03;;;;;;;27.63;17.77;;;;;;;;;;5003081;28;20301;-83
2021/07/13 19:46:50;;;;;;;31.33;17.90;;;;;;;;;;5000122;28;20535;-85
2021/07/13 19:49:35;;;;;;;30.42;17.45;;;;;;;;;;5015565;28;20045;-81
2021/07/13 19:52:20;;;;;;;27.90;17.52;;;;;;;;;;5012487;28;20049;-83
2021/07/13 19:55:06;;;;;;;42.42;19.85;;;;;;;;;;5002710;28;20037;-85
2021/07/13 19:57:52;;;;;;;33.13;20.33;;;;;;;;;;5002686;28;20053;-81
2021/07/13 20:00:37;;;;;;;33.50;20.60;;;;;;;;;;4999610;28;20037;-82
2021/07/13 20:03:22;;;;;;;33.85;19.10;;;;;;;;;;5002145;28;20045;-83
2021/07/13 20:06:07;;;;;;;31.83;19.30;;;;;;;;;;5001117;28;20064;-82
2021/07/13 20:08:52;;;;;;;35.63;20.73;;;;;;;;;;5006718;28;20052;-84
2021/07/13 20:11:37;;;;;;;30.33;19.65;;;;;;;;;;4999790;28;20045;-83
2021/07/13 20:14:22;;;;;;;35.70;20.48;;;;;;;;;;5002754;28;20045;-82
2021/07/13 20:17:09;;;;;;;36.13;21.75;;;;;;;;;;4991611;28;20056;-80
2021/07/13 20:19:53;;;;;;;32.85;22.48;;;;;;;;;;5009429;28;20526;-84
2021/07/13 20:22:38;;;;;;;32.60;22.00;;;;;;;;;;5006895;28;20041;-82
2021/07/13 20:25:24;;;;;;;38.90;24.20;;;;;;;;;;4999865;28;20041;-82
2021/07/13 20:28:08;;;;;;;38.92;24.20;;;;;;;;;;4997478;28;20045;-82
2021/07/13 20:30:53;;;;;;;38.88;25.58;;;;;;;;;;5017175;28;20415;-84
2021/07/13 20:33:40;;;;;;;38.65;24.13;;;;;;;;;;5021296;28;20045;-85
2021/07/13 20:36:25;;;;;;;34.15;22.85;;;;;;;;;;5013813;28;20048;-85
2021/07/13 20:39:10;;;;;;;43.17;23.98;;;;;;;;;;5005940;28;20048;-84
2021/07/13 20:41:57;;;;;;;38.63;24.05;;;;;;;;;;5017771;28;20040;-87
2021/07/13 20:44:42;;;;;;;41.10;23.48;;;;;;;;;;5021230;28;20053;-85
2021/07/13 20:47:26;;;;;;;33.25;22.02;;;;;;;;;;5015509;28;20044;-83
2021/07/13 20:50:13;;;;;;;39.05;23.85;;;;;;;;;;5017937;28;20056;-82
2021/07/13 20:52:58;;;;;;;;;;;;;;;;;;5007191;28;20510;-82
2021/07/13 20:55:42;;;;;;;38.72;25.58;;;;;;;;;;5012975;28;19936;-82
2021/07/13 20:58:28;;;;;;;43.38;26.50;;;;;;;;;;4998824;28;20056;-87
2021/07/13 21:01:13;;;;;;;47.95;26.48;;;;;;;;;;4987552;28;20045;-85
2021/07/13 21:03:58;;;;;;;38.28;27.88;;;;;;;;;;5006663;28;20407;-85
2021/07/13 21:06:44;;;;;;;43.95;26.35;;;;;;;;;;4994910;28;20041;-83
2021/07/13 21:09:30;;;;;;;45.33;27.13;;;;;;;;;;5004451;28;20122;-86
2021/07/13 21:12:15;;;;;;;42.83;27.17;;;;;;;;;;4986136;28;20036;-81
2021/07/13 21:15:00;;;;;;;45.63;25.95;;;;;;;;;;5004017;28;20049;-81
2021/07/13 21:17:47;;;;;;;46.50;28.45;;;;;;;;;;5000492;28;20519;-82
2021/07/13 21:20:33;;;;;;;64.07;35.05;;;;;;;;;;4999392;28;20057;-84
2021/07/13 21:23:18;;;;;;;56.83;38.13;;;;;;;;;;5001308;28;20037;-80
2021/07/13 21:26:03;;;;;;;66.85;43.35;;;;;;;;;;5000890;28;20041;-80
2021/07/13 21:28:48;;;;;;;64.57;43.83;;;;;;;;;;5005236;28;20045;-79
2021/07/13 21:31:36;;;;;;;62.67;40.95;;;;;;;;;;4998989;28;20049;-82
2021/07/13 21:34:21;;;;;;;59.65;37.15;;;;;;;;;;4998019;28;20048;-82
2021/07/13 21:37:05;;;;;;;55.95;37.28;;;;;;;;;;4995088;28;20057;-80
2021/07/13 21:39:51;;;;;;;61.20;34.25;;;;;;;;;;5007217;28;20045;-85
2021/07/13 21:42:36;;;;;;;53.83;36.50;;;;;;;;;;4999928;28;20048;-82
2021/07/13 21:45:22;;;;;;;54.97;36.20;;;;;;;;;;4999274;28;20436;-82
2021/07/13 21:48:07;;;;;;;55.38;33.83;;;;;;;;;;4993879;28;20263;-84
2021/07/13 21:50:53;;;;;;;55.20;32.15;;;;;;;;;;4995201;28;20049;-86
2021/07/13 21:53:38;;;;;;;52.53;32.55;;;;;;;;;;4984005;28;20041;-81
2021/07/13 22:24:57;;;;;;;59.65;34.40;;;;;;;;;;4921350;27;129385;-63
2021/07/13 22:31:24;;;;;;;58.47;36.00;;;;;;;;;;4780606;28;20149;-70
2021/07/13 22:33:51;;;;;;;61.28;34.95;;;;;;;;;;4989660;28;20048;-72
2021/07/13 22:36:18;;;;;;;58.00;34.55;;;;;;;;;;5052454;28;20112;-73
2021/07/13 22:38:47;;;;;;;57.70;34.05;;;;;;;;;;5021615;28;20395;-72
2021/07/13 22:41:14;;;;;;;50.90;35.97;;;;;;;;;;5036285;28;20480;-72
2021/07/13 22:43:41;;;;;;;56.15;32.67;;;;;;;;;;5036880;28;20048;-70
2021/07/13 22:46:08;;;;;;;51.28;33.33;;;;;;;;;;5049795;28;20044;-71
2021/07/13 22:48:35;;;;;;;52.25;32.33;;;;;;;;;;5043326;28;20033;-72
2021/07/13 22:51:02;;;;;;;52.97;32.30;;;;;;;;;;5017212;28;20412;-72
2021/07/13 22:53:28;;;;;;;52.17;31.75;;;;;;;;;;5034573;28;20059;-73
2021/07/13 22:55:55;;;;;;;49.25;33.20;;;;;;;;;;5036520;28;20071;-72
2021/07/13 22:58:22;;;;;;;47.42;30.67;;;;;;;;;;5034647;28;20041;-72
2021/07/13 23:00:51;;;;;;;51.47;30.50;;;;;;;;;;5042311;28;20045;-72
2021/07/13 23:03:17;;;;;;;50.35;29.10;;;;;;;;;;5035252;28;20478;-75
2021/07/13 23:05:44;;;;;;;47.63;30.25;;;;;;;;;;5056035;28;20112;-71
2021/07/13 23:08:10;;;;;;;44.30;31.95;;;;;;;;;;5056126;28;20402;-72
2021/07/13 23:10:37;;;;;;;44.83;31.42;;;;;;;;;;5052724;28;20513;-72
2021/07/13 23:13:03;;;;;;;41.33;30.67;;;;;;;;;;5033589;28;20033;-70
2021/07/13 23:15:33;;;;;;;44.17;28.73;;;;;;;;;;5018194;28;20045;-69
2021/07/13 23:18:06;;;;;;;46.03;28.67;;;;;;;;;;5017974;28;20048;-72
2021/07/13 23:20:32;;;;;;;40.53;29.15;;;;;;;;;;5043755;28;21028;-76
2021/07/13 23:23:01;;;;;;;41.70;27.58;;;;;;;;;;5030688;28;20133;-72
2021/07/13 23:25:27;;;;;;;;;;;;;;;;;;5007150;28;20123;-72
2021/07/13 23:27:54;;;;;;;39.63;27.30;;;;;;;;;;5036537;28;20407;-78
2021/07/13 23:30:22;;;;;;;43.25;28.63;;;;;;;;;;5007851;28;22759;-73
2021/07/13 23:32:53;;;;;;;36.33;25.77;;;;;;;;;;5009560;28;20450;-71
2021/07/13 23:35:21;;;;;;;36.92;26.10;;;;;;;;;;5007112;28;20383;-73
2021/07/13 23:37:49;;;;;;;38.38;26.52;;;;;;;;;;4979724;28;20046;-74
2021/07/13 23:40:16;;;;;;;39.20;26.42;;;;;;;;;;5011020;28;20056;-82
2021/07/13 23:42:42;;;;;;;36.33;24.95;;;;;;;;;;4992293;28;20045;-77
2021/07/13 23:45:09;;;;;;;39.63;26.02;;;;;;;;;;4995024;28;20057;-78
2021/07/13 23:47:36;;;;;;;34.90;26.35;;;;;;;;;;5001826;28;20035;-74
2021/07/13 23:50:05;;;;;;;34.60;25.25;;;;;;;;;;4958377;28;20482;-74
2021/07/13 23:52:33;;;;;;;36.78;26.15;;;;;;;;;;4985525;28;20042;-74
2021/07/13 23:55:00;;;;;;;36.13;24.60;;;;;;;;;;4984358;28;20054;-73
2021/07/13 23:57:27;;;;;;;38.30;25.05;;;;;;;;;;4999032;28;20069;-73
2021/07/13 23:59:53;;;;;;;32.55;24.52;;;;;;;;;;4983950;28;20517;-71
